createdAt,value
2022-09-02T00:01:33.627Z,47.90
2022-09-02T00:06:32.670Z,48.00
2022-09-02T00:11:31.635Z,48.20
2022-09-02T00:16:31.487Z,48.10
2022-09-02T00:21:30.548Z,48.20
2022-09-02T00:26:29.624Z,48.30
2022-09-02T00:31:29.062Z,48.50
2022-09-02T00:36:28.763Z,48.50
2022-09-02T00:41:27.646Z,48.60
2022-09-02T00:46:27.108Z,48.60
2022-09-02T00:51:27.631Z,48.60
2022-09-02T00:56:26.548Z,48.70
2022-09-02T01:01:27.170Z,48.80
2022-09-02T01:06:27.313Z,48.80
2022-09-02T01:11:26.567Z,49.10
2022-09-02T01:16:25.828Z,49.20
2022-09-02T01:21:24.592Z,49.30
2022-09-02T01:26:25.384Z,49.20
2022-09-02T01:31:24.756Z,49.30
2022-09-02T01:36:23.735Z,49.40
2022-09-02T01:41:23.503Z,49.30
2022-09-02T01:46:23.294Z,49.50
2022-09-02T01:51:22.629Z,49.40
2022-09-02T01:56:22.540Z,49.40
2022-09-02T02:01:21.766Z,49.50
2022-09-02T02:06:21.677Z,49.60
2022-09-02T02:11:22.538Z,49.50
2022-09-02T02:16:21.885Z,49.50
2022-09-02T02:21:20.785Z,49.50
2022-09-02T02:26:19.706Z,49.40
2022-09-02T02:31:20.105Z,49.40
2022-09-02T02:36:20.078Z,49.70
2022-09-02T02:41:18.945Z,49.60
2022-09-02T02:46:19.016Z,49.70
2022-09-02T02:51:18.489Z,49.80
2022-09-02T02:56:17.964Z,49.80
2022-09-02T03:01:17.214Z,49.70
2022-09-02T03:06:19.441Z,49.70
2022-09-02T03:11:19.693Z,49.60
2022-09-02T03:16:20.224Z,49.70
2022-09-02T03:21:19.877Z,49.70
2022-09-02T03:26:19.187Z,49.80
2022-09-02T03:31:18.831Z,49.80
2022-09-02T03:36:19.529Z,50.00
2022-09-02T03:41:19.872Z,50.10
2022-09-02T03:46:19.829Z,50.10
2022-09-02T03:51:19.193Z,50.10
2022-09-02T03:56:18.193Z,50.10
2022-09-02T04:01:17.773Z,50.10
2022-09-02T04:06:18.036Z,50.10
2022-09-02T04:11:18.994Z,50.20
2022-09-02T04:16:18.179Z,50.10
2022-09-02T04:21:20.460Z,50.10
2022-09-02T04:26:19.940Z,50.20
2022-09-02T04:31:19.111Z,50.20
2022-09-02T04:36:18.362Z,50.30
2022-09-02T04:41:19.029Z,50.20
2022-09-02T04:46:18.258Z,50.10
2022-09-02T04:51:19.025Z,50.10
2022-09-02T04:56:18.197Z,50.20
2022-09-02T05:01:18.405Z,50.30
2022-09-02T05:06:18.585Z,50.50
2022-09-02T05:11:18.383Z,50.60
2022-09-02T05:16:18.500Z,50.70
2022-09-02T05:21:18.797Z,50.70
2022-09-02T05:26:18.137Z,50.70
2022-09-02T05:31:17.709Z,50.60
2022-09-02T05:36:17.053Z,50.50
2022-09-02T05:41:18.129Z,50.50
2022-09-02T05:46:18.347Z,50.40
2022-09-02T05:51:18.622Z,50.30
2022-09-02T05:56:19.014Z,50.40
2022-09-02T06:01:18.259Z,50.50
2022-09-02T06:06:18.729Z,50.60
2022-09-02T06:11:18.288Z,50.70
2022-09-02T06:16:19.017Z,50.80
2022-09-02T06:21:21.714Z,50.90
2022-09-02T06:26:23.970Z,51.10
2022-09-02T06:31:23.357Z,51.10
2022-09-02T06:36:23.092Z,51.10
2022-09-02T06:41:24.261Z,51.20
2022-09-02T06:46:23.965Z,51.00
2022-09-02T06:51:23.763Z,50.70
2022-09-02T06:56:23.011Z,50.50
2022-09-02T07:01:22.229Z,50.10
2022-09-02T07:06:23.161Z,50.00
2022-09-02T07:11:22.299Z,49.90
2022-09-02T07:16:22.699Z,49.00
2022-09-02T07:21:26.898Z,48.70
2022-09-02T07:26:26.604Z,48.50
2022-09-02T07:31:28.907Z,48.60
2022-09-02T07:36:29.720Z,48.60
2022-09-02T07:41:30.432Z,48.70
2022-09-02T07:46:31.953Z,49.00
2022-09-02T07:51:34.385Z,48.80
2022-09-02T07:56:34.649Z,48.40
2022-09-02T08:01:34.990Z,48.20
2022-09-02T08:06:35.069Z,48.30
2022-09-02T08:11:36.575Z,48.20
2022-09-02T08:16:36.181Z,47.70
2022-09-02T08:21:35.049Z,48.00
2022-09-02T08:26:36.906Z,47.90
2022-09-02T08:31:36.076Z,47.70
2022-09-02T08:36:34.812Z,47.10
2022-09-02T08:41:34.201Z,46.90
2022-09-02T08:46:33.085Z,47.00
2022-09-02T08:51:33.807Z,46.70
2022-09-02T08:56:35.948Z,46.50
2022-09-02T09:01:34.954Z,45.80
2022-09-02T09:06:34.560Z,45.30
2022-09-02T09:11:33.849Z,45.20
2022-09-02T09:16:33.969Z,45.00
2022-09-02T09:21:33.005Z,45.00
2022-09-02T09:26:32.657Z,44.50
2022-09-02T09:31:32.051Z,44.60
2022-09-02T09:36:30.832Z,44.00
2022-09-02T09:41:30.644Z,44.00
2022-09-02T09:46:30.748Z,44.10
2022-09-02T09:51:29.865Z,43.20
2022-09-02T09:56:32.131Z,42.70
2022-09-02T10:01:32.843Z,42.10
2022-09-02T10:06:31.964Z,41.40
2022-09-02T10:11:31.144Z,41.20
2022-09-02T10:16:29.949Z,39.00
2022-09-02T10:21:28.857Z,39.20
2022-09-02T10:26:28.208Z,38.70
2022-09-02T10:31:27.067Z,37.90
2022-09-02T10:36:27.854Z,37.30
2022-09-02T10:41:27.075Z,37.10
2022-09-02T10:46:26.464Z,36.70
2022-09-02T10:51:26.640Z,35.60
2022-09-02T10:56:26.267Z,35.90
2022-09-02T11:01:25.114Z,35.10
2022-09-02T11:06:26.217Z,35.20
2022-09-02T11:11:24.960Z,35.00
2022-09-02T11:16:25.550Z,35.00
2022-09-02T11:21:25.816Z,34.30
2022-09-02T11:26:27.256Z,34.20
2022-09-02T11:31:25.907Z,34.80
2022-09-02T11:36:25.873Z,34.90
2022-09-02T11:41:36.757Z,34.50
2022-09-02T11:46:27.986Z,33.20
2022-09-02T11:51:26.950Z,34.00
2022-09-02T11:56:25.983Z,33.50
2022-09-02T12:01:25.927Z,33.60
2022-09-02T12:06:26.055Z,33.90
2022-09-02T12:11:25.456Z,33.50
2022-09-02T12:16:24.133Z,33.90
2022-09-02T12:21:23.157Z,33.70
2022-09-02T12:26:22.267Z,34.10
2022-09-02T12:31:22.549Z,34.00
2022-09-02T12:36:23.219Z,33.90
2022-09-02T12:41:22.095Z,34.30
2022-09-02T12:46:21.343Z,33.90
2022-09-02T12:51:21.114Z,33.70
2022-09-02T12:56:20.790Z,33.90
2022-09-02T13:01:20.189Z,33.80
2022-09-02T13:06:21.207Z,33.80
2022-09-02T13:11:20.234Z,34.30
2022-09-02T13:16:19.430Z,34.40
2022-09-02T13:21:19.010Z,33.80
2022-09-02T13:26:32.919Z,33.80
2022-09-02T13:31:19.230Z,33.20
2022-09-02T13:36:18.062Z,33.90
2022-09-02T13:41:17.030Z,33.60
2022-09-02T13:46:16.355Z,33.20
2022-09-02T13:51:15.112Z,32.60
2022-09-02T13:56:14.116Z,32.10
2022-09-02T14:01:14.274Z,31.80
2022-09-02T14:06:13.077Z,31.90
2022-09-02T14:11:15.589Z,32.60
2022-09-02T14:16:13.229Z,32.40
2022-09-02T14:21:12.022Z,32.60
2022-09-02T14:26:11.165Z,33.00
2022-09-02T14:31:10.375Z,32.70
2022-09-02T14:36:09.110Z,32.80
2022-09-02T14:41:10.297Z,33.00
2022-09-02T14:46:09.329Z,33.30
2022-09-02T14:51:08.073Z,33.60
2022-09-02T14:56:07.055Z,33.80
2022-09-02T15:01:08.068Z,33.80
2022-09-02T15:06:08.386Z,33.20
2022-09-02T15:11:08.150Z,33.30
2022-09-02T15:16:07.142Z,32.90
2022-09-02T15:21:06.117Z,32.30
2022-09-02T15:26:05.256Z,32.90
2022-09-02T15:31:04.372Z,33.30
2022-09-02T15:36:03.995Z,33.60
2022-09-02T15:41:04.094Z,33.70
2022-09-02T15:46:03.488Z,33.40
2022-09-02T15:51:04.315Z,33.50
2022-09-02T15:56:03.242Z,33.20
2022-09-02T16:01:02.122Z,33.60
2022-09-02T16:06:02.314Z,33.70
2022-09-02T16:11:01.209Z,33.70
2022-09-02T16:16:00.170Z,34.00
2022-09-02T16:20:59.182Z,34.30
2022-09-02T16:25:58.409Z,34.70
2022-09-02T16:30:57.289Z,35.00
2022-09-02T16:35:56.216Z,35.30
2022-09-02T16:40:55.546Z,35.50
2022-09-02T16:45:55.138Z,35.50
2022-09-02T16:50:54.158Z,35.40
2022-09-02T16:55:53.269Z,35.60
2022-09-02T17:00:52.314Z,35.70
2022-09-02T17:05:51.195Z,35.90
2022-09-02T17:10:50.282Z,36.20
2022-09-02T17:15:49.217Z,36.50
2022-09-02T17:20:48.258Z,36.50
2022-09-02T17:25:47.517Z,36.60
2022-09-02T17:30:46.448Z,36.70
2022-09-02T17:35:45.294Z,36.80
2022-09-02T17:41:02.397Z,37.00
2022-09-02T17:46:01.441Z,37.30
2022-09-02T17:51:00.229Z,37.60
2022-09-02T17:55:59.238Z,37.90
2022-09-02T18:00:59.173Z,38.20
2022-09-02T18:05:58.541Z,38.40
2022-09-02T18:10:58.600Z,38.40
2022-09-02T18:15:57.320Z,38.70
2022-09-02T18:20:56.328Z,38.80
2022-09-02T18:25:55.335Z,39.00
2022-09-02T18:30:55.847Z,39.30
2022-09-02T18:35:55.691Z,39.60
2022-09-02T18:40:54.320Z,39.70
2022-09-02T18:45:54.144Z,39.80
2022-09-02T18:50:53.923Z,39.90
2022-09-02T18:55:53.526Z,40.00
2022-09-02T19:00:52.614Z,40.20
2022-09-02T19:05:51.528Z,40.40
2022-09-02T19:10:50.323Z,40.50
2022-09-02T19:15:49.648Z,40.50
2022-09-02T19:20:51.490Z,40.50
2022-09-02T19:25:50.417Z,40.60
2022-09-02T19:30:49.418Z,40.60
2022-09-02T19:35:48.921Z,40.60
2022-09-02T19:40:49.036Z,40.60
2022-09-02T19:45:50.462Z,40.70
2022-09-02T19:50:49.626Z,40.90
2022-09-02T19:55:48.399Z,40.80
2022-09-02T20:00:47.765Z,40.90
2022-09-02T20:05:48.568Z,41.10
2022-09-02T20:10:47.471Z,41.20
2022-09-02T20:15:46.728Z,41.30
2022-09-02T20:20:45.496Z,41.40
2022-09-02T20:25:44.773Z,41.60
2022-09-02T20:30:43.442Z,41.50
2022-09-02T20:35:42.323Z,41.50
2022-09-02T20:40:43.411Z,41.50
2022-09-02T20:45:42.595Z,41.60
2022-09-02T20:50:41.424Z,41.60
2022-09-02T20:55:40.571Z,41.80
2022-09-02T21:00:39.476Z,41.60
2022-09-02T21:05:40.384Z,41.90
2022-09-02T21:10:39.496Z,41.90
2022-09-02T21:15:38.492Z,42.00
2022-09-02T21:20:38.412Z,42.10
2022-09-02T21:25:39.434Z,42.20
2022-09-02T21:30:39.120Z,42.30
2022-09-02T21:35:38.476Z,42.50
2022-09-02T21:40:37.593Z,42.50
2022-09-02T21:45:36.353Z,42.60
2022-09-02T21:50:35.944Z,42.80
2022-09-02T21:55:35.266Z,42.90
2022-09-02T22:00:34.510Z,42.90
2022-09-02T22:05:33.436Z,43.00
2022-09-02T22:10:32.348Z,43.20
2022-09-02T22:15:33.709Z,43.40
2022-09-02T22:20:32.455Z,43.40
2022-09-02T22:25:33.975Z,43.70
2022-09-02T22:30:32.360Z,43.80
2022-09-02T22:35:32.389Z,43.80
2022-09-02T22:40:32.419Z,44.00
2022-09-02T22:45:49.563Z,44.00
2022-09-02T22:51:06.844Z,44.10
2022-09-02T22:56:07.515Z,44.10
2022-09-02T23:01:08.428Z,44.20
2022-09-02T23:06:07.539Z,44.40
2022-09-02T23:11:06.627Z,44.50
2022-09-02T23:16:06.727Z,44.70
2022-09-02T23:21:06.899Z,44.70
2022-09-02T23:26:07.996Z,44.80
2022-09-02T23:31:06.751Z,44.90
2022-09-02T23:36:07.385Z,44.90
2022-09-02T23:41:06.482Z,45.20
2022-09-02T23:46:06.126Z,45.20
2022-09-02T23:51:06.111Z,45.10
2022-09-02T23:56:05.512Z,45.20
